Time;durP1;ratioP1;P1;durP2;ratioP2;P2;SDS_P1;SDS_P2;PMS_P1;PMS_P2;Temp;Humidity;BMP_temperature;BMP_pressure;BME280_temperature;BME280_humidity;BME280_pressure;Samples;Min_cycle;Max_cycle;Signal;HPM_P1;HPM_P2
2023/05/29 00:00:37;;;;;;;7.80;3.77;;;;;;;16.11;64.83;100314.03;1483009;87;21618;-80
2023/05/29 00:03:04;;;;;;;5.40;3.60;;;;;;;16.09;65.11;100309.38;1478548;87;21616;-78
2023/05/29 00:05:31;;;;;;;7.43;3.70;;;;;;;16.11;65.26;100315.84;1498929;86;21486;-78
2023/05/29 00:07:57;;;;;;;10.07;4.40;;;;;;;16.13;65.39;100311.98;1434119;90;21479;-78
2023/05/29 00:10:23;;;;;;;12.43;4.93;;;;;;;16.17;64.90;100312.43;1498349;87;21441;-79
2023/05/29 00:12:50;;;;;;;17.43;5.37;;;;;;;16.19;64.76;100313.90;1494256;86;22520;-78
2023/05/29 00:15:17;;;;;;;10.17;3.93;;;;;;;16.19;64.56;100315.75;1489378;86;21427;-78
2023/05/29 00:17:43;;;;;;;13.97;3.70;;;;;;;16.16;64.30;100316.95;1494221;86;22550;-77
2023/05/29 00:20:11;;;;;;;9.77;4.03;;;;;;;16.16;64.36;100314.27;1490907;87;21448;-79
2023/05/29 00:22:40;;;;;;;9.60;4.00;;;;;;;16.13;64.89;100318.66;1485791;87;21537;-77
2023/05/29 00:25:07;;;;;;;10.63;4.23;;;;;;;16.12;64.47;100314.34;1443985;89;21471;-78
2023/05/29 00:27:34;;;;;;;10.10;4.07;;;;;;;16.09;64.48;100313.89;1497397;86;21507;-78
2023/05/29 00:30:02;;;;;;;13.73;4.43;;;;;;;16.08;64.29;100313.04;1497332;87;21448;-79
2023/05/29 00:32:28;;;;;;;6.63;3.93;;;;;;;16.07;64.32;100314.06;1481233;87;21500;-78
2023/05/29 00:34:55;;;;;;;12.30;4.33;;;;;;;16.05;64.53;100316.09;1494502;86;21581;-78
2023/05/29 00:37:22;;;;;;;8.50;4.03;;;;;;;16.03;64.58;100311.46;1497046;87;21404;-78
2023/05/29 00:39:49;;;;;;;9.00;3.80;;;;;;;15.99;64.95;100311.49;1489672;87;21456;-77
2023/05/29 00:42:15;;;;;;;9.67;3.73;;;;;;;15.98;64.58;100306.67;1498470;86;21449;-78
2023/05/29 00:44:42;;;;;;;10.27;4.03;;;;;;;15.96;64.88;100302.52;1499001;86;22493;-78
2023/05/29 00:47:08;;;;;;;7.23;3.87;;;;;;;15.94;64.77;100306.73;1492937;86;21493;-76
2023/05/29 00:49:37;;;;;;;9.50;3.80;;;;;;;15.92;65.30;100313.27;1494808;87;21692;-77
2023/05/29 00:52:07;;;;;;;12.67;4.37;;;;;;;15.90;65.39;100308.61;1489894;87;21559;-78
2023/05/29 00:54:35;;;;;;;10.87;4.97;;;;;;;15.92;65.50;100307.92;1501944;86;21627;-77
2023/05/29 00:57:03;;;;;;;9.57;3.63;;;;;;;15.90;65.58;100308.09;1488413;87;22001;-78
2023/05/29 00:59:33;;;;;;;9.53;4.40;;;;;;;15.90;65.65;100303.27;1492858;87;21420;-78
2023/05/29 01:02:02;;;;;;;17.35;3.45;;;;;;;15.87;65.56;100310.31;1498452;86;22433;-78
2023/05/29 01:04:28;;;;;;;14.40;4.10;;;;;;;15.86;65.75;100306.00;1496049;87;21730;-78
2023/05/29 01:06:55;;;;;;;14.40;4.10;;;;;;;15.83;65.74;100311.70;1492147;86;21530;-78
2023/05/29 01:09:21;;;;;;;11.60;3.43;;;;;;;15.81;65.62;100304.39;1480530;87;21619;-77
2023/05/29 01:12:12;;;;;;;11.77;4.20;;;;;;;15.78;65.79;100308.25;1498730;86;21449;-78
2023/05/29 01:15:05;;;;;;;10.53;3.65;;;;;;;15.72;66.55;100306.32;1483670;87;21663;-77
2023/05/29 01:17:43;;;;;;;15.80;4.53;;;;;;;15.64;66.60;100305.86;1489094;87;21463;-79
2023/05/29 01:20:41;;;;;;;9.23;3.70;;;;;;;15.56;66.63;100309.47;1491007;87;21568;-79
2023/05/29 01:23:22;;;;;;;9.50;3.23;;;;;;;15.48;67.35;100305.55;1436986;91;22595;-79
2023/05/29 01:26:25;;;;;;;14.25;4.25;;;;;;;15.39;67.71;100301.28;1429626;91;21501;-80
2023/05/29 01:29:00;;;;;;;9.40;4.03;;;;;;;15.34;67.90;100299.17;1414197;91;21493;-79
2023/05/29 01:31:28;;;;;;;13.90;4.83;;;;;;;15.31;68.15;100303.54;1429240;91;22485;-81
2023/05/29 01:34:00;;;;;;;7.13;3.87;;;;;;;15.26;68.57;100305.91;1430153;91;21479;-79
2023/05/29 01:36:27;;;;;;;11.00;4.23;;;;;;;15.26;68.30;100303.25;1428164;91;21472;-80
2023/05/29 01:38:56;;;;;;;17.57;4.07;;;;;;;15.25;67.91;100298.11;1427131;91;22565;-80
2023/05/29 01:41:24;;;;;;;12.30;4.20;;;;;;;15.25;67.96;100299.45;1437336;91;21464;-79
2023/05/29 01:43:51;;;;;;;12.00;3.97;;;;;;;15.24;67.71;100301.26;1430811;91;21493;-80
2023/05/29 01:46:19;;;;;;;8.83;4.17;;;;;;;15.23;67.84;100300.95;1422103;91;21434;-80
2023/05/29 01:48:46;;;;;;;12.57;3.73;;;;;;;15.21;68.30;100300.29;1423929;91;21493;-80
2023/05/29 01:51:13;;;;;;;7.27;3.67;;;;;;;15.17;68.34;100300.34;1428747;90;21686;-80
2023/05/29 01:53:42;;;;;;;11.13;3.53;;;;;;;15.15;68.82;100298.86;1430784;87;21575;-82
2023/05/29 01:56:10;;;;;;;6.23;3.47;;;;;;;15.12;69.17;100304.05;1493328;86;21463;-80
2023/05/29 01:58:38;;;;;;;11.00;4.20;;;;;;;15.13;69.18;100299.03;1486870;86;21567;-80
2023/05/29 02:01:06;;;;;;;5.17;2.90;;;;;;;15.14;69.12;100295.88;1480541;87;22298;-80
2023/05/29 02:03:34;;;;;;;16.03;3.43;;;;;;;15.14;68.75;100296.70;1492293;86;21626;-79
2023/05/29 02:06:01;;;;;;;8.20;3.70;;;;;;;15.15;68.86;100292.20;1449369;89;22580;-79
2023/05/29 02:08:27;;;;;;;8.73;3.50;;;;;;;15.15;68.40;100294.35;1491007;87;21596;-80
2023/05/29 02:10:53;;;;;;;21.60;4.47;;;;;;;15.15;68.49;100293.02;1438910;90;21982;-80
2023/05/29 02:13:20;;;;;;;8.57;3.40;;;;;;;15.15;68.35;100295.69;1457855;90;21419;-80
2023/05/29 02:15:47;;;;;;;7.30;3.93;;;;;;;15.15;68.12;100293.02;1488234;87;21360;-79
2023/05/29 02:18:17;;;;;;;6.33;3.50;;;;;;;15.16;67.90;100286.67;1495965;86;21685;-80
2023/05/29 02:20:43;;;;;;;13.88;5.30;;;;;;;15.15;68.11;100285.02;1487640;86;21383;-80
2023/05/29 02:23:10;;;;;;;9.23;3.47;;;;;;;15.16;68.30;100281.34;1494537;86;22528;-79
2023/05/29 02:25:36;;;;;;;7.50;3.60;;;;;;;15.17;68.23;100279.02;1445118;90;21443;-81
2023/05/29 02:28:03;;;;;;;8.37;3.40;;;;;;;15.19;67.99;100274.81;1427318;90;22485;-80
2023/05/29 02:30:30;;;;;;;9.00;4.10;;;;;;;15.16;67.70;100270.67;1497178;87;22024;-80
2023/05/29 02:32:56;;;;;;;8.53;3.53;;;;;;;15.15;67.48;100274.87;1492478;86;21650;-80
2023/05/29 02:35:22;;;;;;;12.13;3.57;;;;;;;15.13;67.35;100275.03;1441972;90;22359;-80
2023/05/29 02:37:50;;;;;;;17.77;4.13;;;;;;;15.10;67.67;100282.06;1454009;87;21655;-80
2023/05/29 02:40:17;;;;;;;9.13;3.67;;;;;;;15.06;67.63;100282.94;1491859;86;21470;-79
2023/05/29 02:42:43;;;;;;;12.23;4.53;;;;;;;14.97;68.06;100268.54;1494226;86;21716;-79
2023/05/29 02:45:10;;;;;;;9.67;3.60;;;;;;;14.90;67.71;100263.08;1494606;86;21463;-80
2023/05/29 02:47:37;;;;;;;9.03;3.53;;;;;;;14.85;67.91;100268.97;1453790;89;21650;-80
2023/05/29 02:50:05;;;;;;;10.70;3.10;;;;;;;14.81;68.32;100264.98;1494995;87;21523;-80
2023/05/29 02:52:39;;;;;;;8.03;3.73;;;;;;;14.79;68.52;100269.69;1453597;89;21645;-80
2023/05/29 02:55:06;;;;;;;8.90;4.40;;;;;;;14.77;68.74;100273.02;1491163;87;21677;-80
2023/05/29 02:57:33;;;;;;;6.23;3.53;;;;;;;14.76;69.03;100275.38;1490283;87;22410;-80
2023/05/29 03:00:00;;;;;;;9.37;4.20;;;;;;;14.75;69.20;100277.69;1487106;86;21471;-80
2023/05/29 03:02:26;;;;;;;8.87;4.17;;;;;;;14.76;69.12;100278.04;1488704;87;21663;-80
2023/05/29 03:04:53;;;;;;;13.43;4.60;;;;;;;14.76;68.91;100283.84;1492618;87;21448;-80
2023/05/29 03:07:20;;;;;;;8.83;3.57;;;;;;;14.74;69.06;100281.89;1475903;87;21604;-80
2023/05/29 03:09:46;;;;;;;9.20;4.00;;;;;;;14.72;68.96;100282.55;1479805;87;22285;-79
2023/05/29 03:12:12;;;;;;;10.73;3.77;;;;;;;14.68;69.50;100279.94;1492752;87;21485;-80
2023/05/29 03:14:38;;;;;;;11.03;3.57;;;;;;;14.62;69.76;100277.48;1491342;86;21671;-80
2023/05/29 03:17:07;;;;;;;9.50;4.10;;;;;;;14.58;70.01;100285.48;1482034;87;21493;-80
2023/05/29 03:19:34;;;;;;;9.50;3.70;;;;;;;14.54;70.42;100284.19;1491097;87;21397;-80
2023/05/29 03:22:00;;;;;;;8.23;4.13;;;;;;;14.57;70.44;100287.83;1490841;86;22321;-80
2023/05/29 03:24:27;;;;;;;11.40;3.53;;;;;;;14.59;70.41;100283.16;1477553;87;21722;-81
2023/05/29 03:26:53;;;;;;;11.03;3.90;;;;;;;14.62;70.32;100288.13;1485308;86;21513;-81
2023/05/29 03:29:19;;;;;;;10.20;3.73;;;;;;;14.62;70.30;100289.47;1491185;87;21834;-81
2023/05/29 03:31:46;;;;;;;6.90;3.90;;;;;;;14.63;70.75;100292.44;1478855;87;21657;-80
2023/05/29 03:34:13;;;;;;;8.07;3.47;;;;;;;14.65;70.49;100297.09;1494866;86;21530;-81
2023/05/29 03:36:39;;;;;;;15.53;5.10;;;;;;;14.67;70.72;100300.39;1488027;87;21630;-80
2023/05/29 03:39:06;;;;;;;5.70;3.77;;;;;;;14.71;70.81;100296.89;1503059;87;21556;-80
2023/05/29 03:41:32;;;;;;;5.20;3.20;;;;;;;14.76;70.87;100304.68;1489603;87;21507;-81
2023/05/29 03:43:58;;;;;;;6.60;3.23;;;;;;;14.81;71.10;100302.28;1494357;87;22468;-80
2023/05/29 03:46:25;;;;;;;6.47;3.70;;;;;;;14.86;71.35;100303.92;1430581;90;21494;-80
2023/05/29 03:48:51;;;;;;;5.03;3.17;;;;;;;14.91;70.77;100305.23;1443898;90;21568;-80
2023/05/29 03:51:17;;;;;;;13.47;4.07;;;;;;;14.89;70.94;100304.06;1491734;87;22476;-80
2023/05/29 03:53:43;;;;;;;14.47;4.63;;;;;;;14.89;70.59;100302.23;1492946;86;22351;-80
2023/05/29 03:56:09;;;;;;;11.17;4.70;;;;;;;14.91;70.67;100306.57;1487829;86;21574;-80
2023/05/29 03:58:36;;;;;;;7.87;3.77;;;;;;;14.93;70.60;100305.36;1489036;86;21493;-80
2023/05/29 04:01:02;;;;;;;8.87;5.00;;;;;;;14.97;70.79;100308.52;1487734;86;21676;-80
2023/05/29 04:03:30;;;;;;;10.33;4.40;;;;;;;15.03;70.78;100303.80;1499037;86;22358;-79
2023/05/29 04:05:57;;;;;;;8.03;4.27;;;;;;;15.05;70.76;100308.45;1449063;89;21619;-80
2023/05/29 04:08:23;;;;;;;13.50;4.33;;;;;;;15.06;70.47;100310.09;1441117;90;21509;-80
2023/05/29 04:10:53;;;;;;;7.23;3.93;;;;;;;15.10;70.79;100313.57;1488163;87;22579;-79
2023/05/29 04:13:17;;;;;;;9.37;5.10;;;;;;;15.14;70.91;100316.70;1487443;87;21441;-80
2023/05/29 04:15:44;;;;;;;7.67;4.10;;;;;;;15.19;70.58;100315.66;1493936;86;21641;-79
2023/05/29 04:18:10;;;;;;;8.00;3.90;;;;;;;15.15;70.64;100317.01;1499082;86;21559;-82
2023/05/29 04:20:36;;;;;;;9.57;4.70;;;;;;;15.17;70.24;100316.84;1494246;86;22275;-82
2023/05/29 04:23:02;;;;;;;10.33;4.40;;;;;;;15.18;70.64;100313.98;1487934;86;21578;-81
2023/05/29 04:25:28;;;;;;;14.47;4.47;;;;;;;15.23;70.39;100310.79;1501165;87;22119;-83
2023/05/29 04:27:55;;;;;;;11.83;3.73;;;;;;;15.26;70.51;100311.25;1495061;86;21830;-83
2023/05/29 04:30:21;;;;;;;7.63;3.90;;;;;;;15.33;70.58;100318.86;1483659;86;21434;-83
2023/05/29 04:32:48;;;;;;;10.27;4.70;;;;;;;15.41;70.75;100321.94;1477157;87;21648;-82
2023/05/29 04:35:14;;;;;;;10.97;3.50;;;;;;;15.45;69.97;100326.39;1446112;89;22025;-82
2023/05/29 04:37:40;;;;;;;10.00;4.50;;;;;;;15.53;70.12;100326.31;1471995;87;22307;-82
2023/05/29 04:40:09;;;;;;;17.20;4.40;;;;;;;15.59;69.58;100322.91;1489569;86;21581;-82
2023/05/29 04:42:36;;;;;;;17.43;4.67;;;;;;;15.69;69.31;100323.52;1495274;86;22433;-83
2023/05/29 04:45:06;;;;;;;6.67;3.47;;;;;;;15.81;69.21;100324.40;1491544;86;21627;-83
2023/05/29 04:47:43;;;;;;;8.30;4.00;;;;;;;15.92;68.72;100321.27;1496292;87;21448;-83
2023/05/29 04:50:00;;;;;;;12.40;5.47;;;;;;;15.99;68.10;100320.32;1488866;87;21456;-82
2023/05/29 04:52:27;;;;;;;10.20;4.30;;;;;;;16.09;68.37;100325.39;1492207;86;22236;-82
2023/05/29 04:54:56;;;;;;;9.03;4.20;;;;;;;16.19;68.43;100317.91;1487279;87;21501;-82
2023/05/29 04:57:23;;;;;;;16.30;3.83;;;;;;;16.32;68.43;100315.92;1432025;90;21687;-82
2023/05/29 04:59:49;;;;;;;8.80;3.63;;;;;;;16.43;67.79;100315.95;1489493;87;21428;-85
2023/05/29 05:02:15;;;;;;;6.60;3.47;;;;;;;16.54;67.10;100318.61;1489385;87;21582;-83
2023/05/29 05:04:42;;;;;;;9.40;4.03;;;;;;;16.64;67.17;100317.80;1486161;87;21501;-83
2023/05/29 05:07:09;;;;;;;9.43;3.40;;;;;;;16.75;66.42;100319.16;1465307;87;22572;-83
2023/05/29 05:09:36;;;;;;;13.53;4.13;;;;;;;16.80;66.23;100319.42;1488059;87;21522;-83
2023/05/29 05:12:02;;;;;;;11.60;4.87;;;;;;;16.93;66.19;100322.75;1490549;87;21419;-83
2023/05/29 05:14:28;;;;;;;7.87;4.80;;;;;;;17.06;65.67;100322.84;1491098;87;21449;-83
2023/05/29 05:16:54;;;;;;;10.90;4.63;;;;;;;17.16;65.43;100323.88;1451339;87;22661;-83
2023/05/29 05:19:20;;;;;;;9.13;4.37;;;;;;;17.27;64.68;100334.05;1484286;87;21457;-83
2023/05/29 05:21:46;;;;;;;8.17;3.97;;;;;;;17.33;64.40;100337.28;1492526;87;21472;-83
2023/05/29 05:24:13;;;;;;;21.50;4.93;;;;;;;17.45;64.79;100337.58;1492144;87;22469;-83
2023/05/29 05:26:39;;;;;;;6.93;4.53;;;;;;;17.62;64.95;100344.80;1486400;87;21464;-83
2023/05/29 05:29:05;;;;;;;7.87;4.47;;;;;;;17.76;64.38;100341.19;1427446;91;21451;-83
2023/05/29 05:31:31;;;;;;;9.80;3.87;;;;;;;17.94;64.02;100345.53;1481903;87;21578;-82
2023/05/29 05:33:57;;;;;;;9.80;4.70;;;;;;;18.10;63.31;100348.41;1488134;87;22203;-83
2023/05/29 05:36:24;;;;;;;9.73;4.97;;;;;;;18.24;63.26;100342.57;1423754;91;21420;-84
2023/05/29 05:38:51;;;;;;;11.33;5.47;;;;;;;18.42;62.82;100344.73;1485647;87;21523;-83
2023/05/29 05:41:18;;;;;;;18.30;5.60;;;;;;;18.47;62.21;100355.16;1472117;87;21435;-83
2023/05/29 05:43:44;;;;;;;13.20;5.40;;;;;;;18.47;62.55;100350.28;1487843;87;22432;-81
2023/05/29 05:46:10;;;;;;;13.13;5.57;;;;;;;18.47;62.83;100358.33;1486907;87;21479;-83
2023/05/29 05:48:36;;;;;;;11.47;4.87;;;;;;;18.55;63.00;100353.31;1489477;87;21559;-83
2023/05/29 05:51:04;;;;;;;8.70;4.87;;;;;;;18.62;63.09;100352.83;1482325;87;21560;-83
2023/05/29 05:53:30;;;;;;;14.10;5.20;;;;;;;18.74;63.19;100353.09;1495696;87;21622;-83
2023/05/29 05:55:56;;;;;;;10.03;5.37;;;;;;;18.82;62.73;100360.44;1493520;86;21331;-83
2023/05/29 05:58:23;;;;;;;16.12;5.20;;;;;;;18.87;62.56;100349.94;1496827;86;21582;-85
2023/05/29 06:00:52;;;;;;;9.50;5.10;;;;;;;19.02;62.19;100355.11;1446415;90;21464;-84
2023/05/29 06:03:17;;;;;;;9.80;5.28;;;;;;;19.22;62.29;100363.17;1449465;90;22411;-84
2023/05/29 06:05:43;;;;;;;8.60;5.72;;;;;;;19.43;62.24;100363.99;1444873;90;22315;-83
2023/05/29 06:08:09;;;;;;;7.08;5.08;;;;;;;19.52;61.70;100358.72;1491397;87;21500;-84
2023/05/29 06:10:35;;;;;;;8.43;4.50;;;;;;;19.61;61.07;100356.13;1490124;86;22440;-84
2023/05/29 06:13:03;;;;;;;10.18;4.87;;;;;;;19.72;60.67;100360.89;1491235;86;21663;-85
2023/05/29 06:15:29;;;;;;;9.68;5.05;;;;;;;19.79;60.72;100360.38;1498663;86;21433;-85
2023/05/29 06:17:55;;;;;;;11.00;4.80;;;;;;;19.76;59.20;100360.77;1440633;89;22545;-84
2023/05/29 06:20:23;;;;;;;10.30;5.10;;;;;;;19.81;59.88;100362.31;1492049;87;21412;-83
2023/05/29 06:22:50;;;;;;;10.53;5.00;;;;;;;19.99;60.17;100374.25;1473403;87;22335;-82
2023/05/29 06:25:20;;;;;;;8.50;5.37;;;;;;;20.08;60.16;100372.98;1494333;86;21441;-82
2023/05/29 06:27:46;;;;;;;17.32;5.55;;;;;;;20.21;60.12;100374.30;1490173;86;21478;-84
2023/05/29 06:30:13;;;;;;;10.28;4.95;;;;;;;20.24;59.85;100376.55;1492735;86;22410;-82
2023/05/29 06:32:40;;;;;;;16.93;6.47;;;;;;;20.26;59.61;100376.36;1492993;86;22321;-82
2023/05/29 06:35:07;;;;;;;7.03;4.60;;;;;;;20.33;59.38;100375.80;1443308;89;21398;-84
2023/05/29 06:37:33;;;;;;;6.87;5.05;;;;;;;20.31;58.82;100371.67;1492893;87;22314;-84
2023/05/29 06:39:59;;;;;;;9.60;5.60;;;;;;;20.39;59.41;100372.26;1493278;86;21441;-83
2023/05/29 06:42:25;;;;;;;9.78;5.30;;;;;;;20.19;57.60;100376.36;1476294;87;21449;-83
2023/05/29 06:44:52;;;;;;;5.40;4.58;;;;;;;20.33;58.42;100379.83;1443172;90;22381;-84
2023/05/29 06:47:18;;;;;;;11.83;4.70;;;;;;;20.35;58.34;100372.91;1445544;90;21465;-85
2023/05/29 06:49:44;;;;;;;8.83;4.80;;;;;;;20.38;57.77;100378.68;1438414;90;21517;-83
2023/05/29 06:52:10;;;;;;;7.62;4.33;;;;;;;20.45;58.66;100377.30;1492102;87;22344;-84
2023/05/29 06:54:36;;;;;;;13.55;5.10;;;;;;;20.61;58.55;100375.50;1490756;86;21471;-84
2023/05/29 06:57:03;;;;;;;17.37;6.10;;;;;;;20.75;57.87;100370.89;1487685;87;22402;-83
2023/05/29 06:59:29;;;;;;;12.43;5.90;;;;;;;20.61;57.01;100370.13;1493962;86;22969;-83
2023/05/29 07:01:55;;;;;;;11.83;5.72;;;;;;;20.53;57.30;100370.38;1483046;87;21522;-87
2023/05/29 07:04:22;;;;;;;13.85;5.22;;;;;;;20.71;58.03;100367.81;1491043;87;21545;-88
2023/05/29 07:06:48;;;;;;;7.40;4.83;;;;;;;20.90;58.16;100373.27;1490910;87;21493;-84
2023/05/29 07:09:14;;;;;;;11.95;4.97;;;;;;;21.06;57.59;100378.14;1493898;86;21596;-86
2023/05/29 07:11:41;;;;;;;11.15;5.80;;;;;;;21.22;56.93;100373.26;1490686;86;21426;-86
2023/05/29 07:14:07;;;;;;;13.93;5.03;;;;;;;21.30;56.92;100379.72;1478176;87;21556;-87
2023/05/29 07:16:33;;;;;;;7.22;5.25;;;;;;;21.40;56.46;100375.50;1485027;87;21834;-86
2023/05/29 07:18:59;;;;;;;9.50;5.47;;;;;;;21.46;56.19;100379.71;1479492;87;22413;-85
2023/05/29 07:21:26;;;;;;;10.65;4.62;;;;;;;21.67;56.09;100375.81;1491299;86;21376;-85
2023/05/29 07:23:52;;;;;;;8.38;5.37;;;;;;;21.73;54.53;100366.31;1496423;86;21433;-85
2023/05/29 07:26:18;;;;;;;14.63;5.47;;;;;;;21.73;54.53;100366.31;1499083;87;22276;-86
2023/05/29 07:28:44;;;;;;;9.83;5.30;;;;;;;21.84;54.72;100376.89;1491256;87;21515;-84
2023/05/29 07:31:11;;;;;;;10.55;5.33;;;;;;;21.88;54.61;100372.69;1496703;87;21662;-83
2023/05/29 07:33:39;;;;;;;7.20;5.15;;;;;;;22.01;54.13;100377.95;1485169;86;21471;-83
2023/05/29 07:36:06;;;;;;;11.63;5.42;;;;;;;22.02;53.07;100375.55;1479184;87;21486;-85
2023/05/29 07:38:32;;;;;;;11.12;5.67;;;;;;;22.00;53.65;100381.67;1483064;87;21449;-86
2023/05/29 07:40:58;;;;;;;12.15;6.05;;;;;;;22.19;53.31;100381.72;1489332;86;21637;-85
2023/05/29 07:43:24;;;;;;;10.43;5.58;;;;;;;22.29;52.60;100380.65;1495524;87;21470;-84
2023/05/29 07:45:53;;;;;;;12.13;5.70;;;;;;;22.42;53.08;100375.11;1492676;86;21494;-85
2023/05/29 07:48:19;;;;;;;15.08;6.45;;;;;;;22.53;52.80;100372.99;1491286;87;21537;-87
2023/05/29 07:50:45;;;;;;;9.48;5.78;;;;;;;22.53;52.03;100375.69;1474683;87;21629;-86
2023/05/29 07:53:12;;;;;;;14.30;5.92;;;;;;;22.65;52.31;100370.88;1488781;86;21507;-86
2023/05/29 07:55:38;;;;;;;9.65;5.42;;;;;;;22.73;52.28;100370.56;1442479;90;21598;-85
2023/05/29 07:58:05;;;;;;;12.93;4.97;;;;;;;22.89;52.90;100376.64;1448518;90;22076;-84
2023/05/29 08:00:31;;;;;;;10.28;6.03;;;;;;;22.95;51.63;100378.44;1497152;87;21685;-85
2023/05/29 08:02:58;;;;;;;12.50;5.67;;;;;;;22.92;51.89;100373.48;1441696;89;22330;-85
2023/05/29 08:05:24;;;;;;;14.40;5.22;;;;;;;22.91;51.88;100378.59;1499408;87;21427;-84
2023/05/29 08:07:50;;;;;;;12.73;5.67;;;;;;;22.98;52.12;100377.98;1478015;87;21633;-85
2023/05/29 08:10:16;;;;;;;12.53;5.25;;;;;;;23.19;52.05;100379.34;1430135;90;22386;-85
2023/05/29 08:12:43;;;;;;;13.03;5.70;;;;;;;23.25;50.92;100381.64;1442981;90;21508;-85
2023/05/29 08:15:10;;;;;;;6.95;5.10;;;;;;;23.37;51.45;100379.77;1493253;87;21634;-87
2023/05/29 08:17:36;;;;;;;14.25;5.92;;;;;;;23.53;50.17;100382.30;1444538;89;22464;-81
2023/05/29 08:20:05;;;;;;;10.82;5.00;;;;;;;23.66;50.99;100382.61;1490967;87;21456;-84
2023/05/29 08:22:30;;;;;;;7.62;4.80;;;;;;;23.72;50.97;100382.23;1446607;90;21553;-86
2023/05/29 08:25:00;;;;;;;11.68;5.20;;;;;;;23.84;49.90;100384.39;1443364;90;21398;-86
2023/05/29 08:31:25;;;;;;;10.63;5.95;;;;;;;24.26;50.23;100383.69;1579149;86;21472;-84
2023/05/29 08:33:52;;;;;;;11.35;4.45;;;;;;;24.36;48.97;100385.77;1414217;86;21287;-85
2023/05/29 08:36:20;;;;;;;8.63;4.08;;;;;;;24.33;47.31;100383.54;1371513;89;22388;-86
2023/05/29 08:38:46;;;;;;;9.08;4.25;;;;;;;24.36;48.32;100394.41;1374482;90;21632;-86
2023/05/29 08:41:27;;;;;;;10.70;4.87;;;;;;;24.46;48.45;100387.91;1414070;87;21338;-84
2023/05/29 08:43:54;;;;;;;11.85;4.70;;;;;;;24.54;46.71;100384.28;1428530;87;21821;-86
2023/05/29 08:46:22;;;;;;;6.42;4.40;;;;;;;24.49;47.52;100387.42;1526615;89;21385;-86
2023/05/29 08:48:52;;;;;;;8.70;5.03;;;;;;;24.36;47.41;100388.47;1368689;90;22278;-86
2023/05/29 08:51:23;;;;;;;10.43;4.97;;;;;;;24.14;47.26;100380.20;1463157;87;22352;-84
2023/05/29 08:53:53;;;;;;;9.78;5.05;;;;;;;24.12;48.47;100383.66;1453919;88;21552;-84
2023/05/29 08:56:19;;;;;;;11.05;5.00;;;;;;;24.16;48.01;100381.29;1473573;88;21500;-85
2023/05/29 08:58:46;;;;;;;10.25;4.62;;;;;;;24.31;48.01;100383.80;1474643;87;22216;-87
2023/05/29 09:01:12;;;;;;;11.65;4.72;;;;;;;24.38;46.87;100383.65;1470977;87;21634;-87
2023/05/29 09:03:38;;;;;;;7.62;4.50;;;;;;;24.62;47.61;100384.41;1472551;88;21367;-86
2023/05/29 09:06:08;;;;;;;15.10;5.45;;;;;;;24.91;46.11;100380.34;1471924;87;21589;-88
2023/05/29 09:08:36;;;;;;;11.28;4.90;;;;;;;25.06;44.41;100385.20;1472407;87;22351;-85
2023/05/29 09:11:03;;;;;;;8.80;4.78;;;;;;;25.25;45.64;100387.19;1469570;87;22514;-86
2023/05/29 09:13:29;;;;;;;9.13;4.78;;;;;;;25.39;46.01;100383.09;1471956;88;21442;-84
2023/05/29 09:15:59;;;;;;;12.30;4.60;;;;;;;25.54;45.81;100376.55;1473601;87;21620;-87
2023/05/29 09:18:31;;;;;;;21.23;5.33;;;;;;;25.75;45.83;100379.55;1472765;88;21583;-87
2023/05/29 09:20:58;;;;;;;7.78;4.92;;;;;;;25.87;44.38;100380.32;1472281;87;21575;-86
2023/05/29 09:23:26;;;;;;;8.48;4.47;;;;;;;26.08;45.05;100376.80;1422589;88;22291;-87
2023/05/29 09:25:54;;;;;;;10.88;5.65;;;;;;;26.07;44.01;100371.09;1471592;87;21974;-86
2023/05/29 09:28:23;;;;;;;9.75;4.55;;;;;;;26.28;44.37;100365.92;1469988;88;21648;-87
2023/05/29 09:30:53;;;;;;;7.00;4.15;;;;;;;26.51;44.16;100364.86;1473949;87;21515;-87
2023/05/29 09:33:21;;;;;;;6.25;4.10;;;;;;;26.77;44.45;100363.23;1467703;88;21456;-87
2023/05/29 09:38:22;;;;;;;8.83;4.08;;;;;;;26.64;43.07;100359.02;1452919;88;23105;-87
2023/05/29 09:40:50;;;;;;;9.25;4.40;;;;;;;26.68;43.27;100354.73;1468182;88;21471;-87
2023/05/29 09:43:19;;;;;;;7.75;4.30;;;;;;;26.77;43.01;100358.61;1476508;87;21663;-87
2023/05/29 09:45:50;;;;;;;12.55;4.62;;;;;;;26.44;42.29;100358.25;1473939;87;21470;-89
2023/05/29 09:48:24;;;;;;;8.40;5.35;;;;;;;26.16;43.12;100351.68;1472608;87;22366;-89
2023/05/29 09:50:50;;;;;;;7.35;5.28;;;;;;;25.78;44.38;100353.30;1472062;88;21382;-92
2023/05/29 09:53:28;;;;;;;7.20;4.20;;;;;;;25.70;43.91;100349.15;1474916;87;21516;-92
2023/05/29 09:55:59;;;;;;;9.65;4.30;;;;;;;25.81;43.39;100348.77;1494141;86;21463;-87
2023/05/29 09:58:26;;;;;;;6.37;4.40;;;;;;;25.91;43.85;100350.27;1441022;90;21531;-88
2023/05/29 10:00:53;;;;;;;6.90;4.25;;;;;;;26.08;43.46;100349.67;1488894;87;21464;-90
2023/05/29 10:03:21;;;;;;;9.53;4.85;;;;;;;26.28;43.36;100338.80;1476027;87;21411;-94
2023/05/29 10:05:51;;;;;;;11.93;5.28;;;;;;;26.37;43.00;100338.63;1495743;86;21544;-89
2023/05/29 10:08:20;;;;;;;6.40;4.30;;;;;;;26.61;42.62;100335.64;1491976;86;21544;-87
2023/05/29 10:10:52;;;;;;;6.45;4.15;;;;;;;26.73;41.72;100326.83;1429328;90;21582;-89
2023/05/29 10:13:18;;;;;;;11.05;4.78;;;;;;;26.87;42.72;100325.30;1476630;87;21552;-90
2023/05/29 10:15:49;;;;;;;13.48;4.35;;;;;;;27.13;42.66;100330.95;1493986;86;21634;-93
2023/05/29 10:18:27;;;;;;;6.78;4.72;;;;;;;27.11;41.50;100335.84;1482232;90;22285;-90
2023/05/29 10:20:58;;;;;;;9.23;5.40;;;;;;;26.68;41.39;100328.13;1446000;90;21517;-90
2023/05/29 10:23:26;;;;;;;8.00;5.08;;;;;;;26.28;42.32;100329.30;1492502;87;22395;-90
2023/05/29 10:26:02;;;;;;;8.70;4.85;;;;;;;26.13;42.91;100325.06;1493576;86;21603;-88
2023/05/29 10:28:28;;;;;;;9.65;4.62;;;;;;;26.27;42.71;100324.42;1491226;87;21485;-89
2023/05/29 10:31:05;;;;;;;7.33;4.22;;;;;;;26.28;41.93;100323.88;1494248;86;22470;-90
2023/05/29 10:33:52;;;;;;;12.53;5.22;;;;;;;26.29;41.36;100316.83;1493821;87;21434;-91
2023/05/29 10:36:24;;;;;;;6.45;4.50;;;;;;;26.57;42.19;100322.31;1491374;87;21485;-89
2023/05/29 10:38:51;;;;;;;6.80;4.25;;;;;;;26.99;42.04;100312.94;1548833;86;21649;-89
2023/05/29 10:41:29;;;;;;;7.62;4.10;;;;;;;27.02;38.74;100316.49;1491614;86;22090;-87
2023/05/29 10:43:59;;;;;;;11.97;4.78;;;;;;;27.30;40.71;100311.27;1492207;86;21485;-89
2023/05/29 10:46:50;;;;;;;;;;;;;;;27.52;40.45;100306.27;1444479;90;22513;-88
2023/05/29 10:49:20;;;;;;;10.63;4.55;;;;;;;27.72;38.99;100305.02;1486374;87;20817;-88
2023/05/29 10:51:45;;;;;;;7.85;4.53;;;;;;;27.88;39.36;100295.88;1451783;90;21480;-88
2023/05/29 10:54:13;;;;;;;8.10;4.50;;;;;;;27.90;39.37;100293.70;1442717;90;21753;-88
2023/05/29 10:56:43;;;;;;;10.98;4.67;;;;;;;28.13;39.86;100292.97;1494737;86;22357;-87
2023/05/29 10:59:10;;;;;;;9.80;4.97;;;;;;;28.37;39.88;100282.95;1493601;87;21470;-87
2023/05/29 11:01:39;;;;;;;12.53;4.37;;;;;;;28.52;39.83;100288.47;1492924;86;21541;-90
2023/05/29 11:04:26;;;;;;;8.38;4.25;;;;;;;28.11;39.00;100285.63;1474521;87;21478;-90
2023/05/29 11:06:55;;;;;;;12.33;4.53;;;;;;;28.22;39.14;100281.83;1488249;87;21648;-88
2023/05/29 11:09:37;;;;;;;7.55;4.60;;;;;;;28.40;39.46;100277.81;1492120;87;21478;-86
2023/05/29 11:12:33;;;;;;;7.62;4.50;;;;;;;28.35;38.55;100284.59;1492341;86;21615;-89
2023/05/29 11:15:10;;;;;;;7.70;3.95;;;;;;;28.28;37.91;100284.86;1476705;87;22560;-88
2023/05/29 11:17:50;;;;;;;10.30;4.62;;;;;;;28.24;37.53;100281.03;1579332;86;21433;-88
2023/05/29 11:20:38;;;;;;;7.12;3.77;;;;;;;28.17;37.58;100284.56;1458636;93;22758;-87
2023/05/29 11:23:09;;;;;;;9.50;4.80;;;;;;;28.06;37.25;100278.81;1405344;93;21515;-86
2023/05/29 11:25:37;;;;;;;9.70;4.47;;;;;;;27.95;38.33;100281.22;1402968;93;21621;-88
2023/05/29 11:28:09;;;;;;;7.45;4.85;;;;;;;28.10;37.90;100267.66;1391127;93;21553;-89
2023/05/29 11:30:43;;;;;;;8.43;4.17;;;;;;;27.80;37.23;100270.55;1404316;93;21554;-88
2023/05/29 11:33:16;;;;;;;10.45;7.08;;;;;;;27.68;38.63;100264.50;1408816;92;21642;-87